Time;durP1;ratioP1;P1;durP2;ratioP2;P2;SDS_P1;SDS_P2;PMS_P1;PMS_P2;Temp;Humidity;BMP_temperature;BMP_pressure;BME280_temperature;BME280_humidity;BME280_pressure;Samples;Min_cycle;Max_cycle;Signal;HPM_P1;HPM_P2
2023/07/29 00:02:10;;;;;;;;;;;24.80;67.50;;;;;;5083225;28;19916;-37
2023/07/29 00:04:36;;;;;;;;;;;24.80;67.60;;;;;;5082205;28;19971;-36
2023/07/29 00:07:01;;;;;;;;;;;24.80;67.70;;;;;;5082845;28;20373;-36
2023/07/29 00:09:27;;;;;;;;;;;24.90;67.90;;;;;;5082048;28;19920;-37
2023/07/29 00:11:53;;;;;;;;;;;24.90;68.10;;;;;;5075187;28;19927;-36
2023/07/29 00:14:19;;;;;;;;;;;24.90;68.20;;;;;;5082696;28;19912;-37
2023/07/29 00:16:45;;;;;;;;;;;24.90;68.30;;;;;;5082186;28;20024;-36
2023/07/29 00:19:11;;;;;;;;;;;25.00;68.40;;;;;;5081726;28;19948;-36
2023/07/29 00:21:37;;;;;;;;;;;25.00;68.30;;;;;;5079499;28;19948;-37
2023/07/29 00:24:03;;;;;;;;;;;25.00;68.30;;;;;;5082902;28;19944;-36
2023/07/29 00:26:29;;;;;;;;;;;25.00;68.40;;;;;;5082442;28;19912;-37
2023/07/29 00:28:55;;;;;;;;;;;25.00;68.30;;;;;;5082525;28;20460;-37
2023/07/29 00:31:21;;;;;;;;;;;25.10;68.40;;;;;;5082230;28;19919;-37
2023/07/29 00:33:47;;;;;;;;;;;25.10;68.40;;;;;;5082453;28;19913;-37
2023/07/29 00:36:13;;;;;;;;;;;25.10;68.30;;;;;;5080695;28;19962;-36
2023/07/29 00:38:39;;;;;;;;;;;25.20;68.50;;;;;;5076881;28;20003;-36
2023/07/29 00:41:05;;;;;;;;;;;25.10;68.30;;;;;;5082509;28;19947;-37
2023/07/29 00:43:30;;;;;;;;;;;25.20;68.50;;;;;;5082297;28;19931;-37
2023/07/29 00:45:57;;;;;;;;;;;25.20;68.40;;;;;;5082476;28;19912;-37
2023/07/29 00:48:23;;;;;;;;;;;25.20;68.40;;;;;;5082582;28;19920;-37
2023/07/29 00:50:49;;;;;;;;;;;25.20;68.40;;;;;;5082251;28;19919;-36
2023/07/29 00:53:15;;;;;;;;;;;25.30;68.40;;;;;;5081960;28;19917;-36
2023/07/29 00:55:41;;;;;;;;;;;25.30;68.40;;;;;;5062810;28;19908;-36
2023/07/29 00:58:07;;;;;;;;;;;25.30;68.40;;;;;;5081644;28;19913;-37
2023/07/29 01:00:33;;;;;;;;;;;25.30;68.40;;;;;;5082291;28;20426;-37
2023/07/29 01:02:59;;;;;;;;;;;25.30;68.30;;;;;;5064235;28;19912;-37
2023/07/29 01:05:26;;;;;;;;;;;25.30;68.30;;;;;;5082208;28;19920;-37
2023/07/29 01:08:27;;;;;;;;;;;25.40;68.40;;;;;;5082180;28;19908;-36
2023/07/29 01:11:01;;;;;;;;;;;25.40;68.30;;;;;;4999056;28;19929;-35
2023/07/29 01:13:28;;;;;;;;;;;25.40;68.30;;;;;;4984392;28;19945;-35
2023/07/29 01:16:14;;;;;;;;;;;25.40;68.30;;;;;;4992870;28;19913;-36
2023/07/29 01:18:40;;;;;;;;;;;25.40;68.20;;;;;;4998665;28;20390;-35
2023/07/29 01:21:07;;;;;;;;;;;25.40;68.20;;;;;;4999108;28;19945;-35
2023/07/29 01:23:36;;;;;;;;;;;25.40;68.20;;;;;;4998269;28;19909;-35
2023/07/29 01:26:02;;;;;;;;;;;25.40;68.20;;;;;;5003867;28;20048;-35
2023/07/29 01:28:28;;;;;;;;;;;25.50;68.20;;;;;;5003240;28;19945;-35
2023/07/29 01:31:06;;;;;;;;;;;25.50;68.20;;;;;;5003524;28;19914;-35
2023/07/29 01:33:34;;;;;;;;;;;25.50;68.20;;;;;;4995132;28;19925;-35
2023/07/29 01:36:04;;;;;;;;;;;25.50;68.10;;;;;;4983071;28;19913;-35
2023/07/29 01:38:34;;;;;;;;;;;25.50;67.60;;;;;;4986955;28;19920;-35
2023/07/29 01:41:01;;;;;;;;;;;25.50;66.00;;;;;;4997223;28;19918;-35
2023/07/29 01:43:28;;;;;;;;;;;25.50;65.00;;;;;;5002640;28;19920;-35
2023/07/29 01:45:54;;;;;;;;;;;25.50;66.00;;;;;;5074401;28;19912;-35
2023/07/29 01:48:19;;;;;;;;;;;25.50;66.80;;;;;;5066797;28;19922;-35
2023/07/29 01:50:45;;;;;;;;;;;25.50;67.00;;;;;;5085404;28;19916;-35
2023/07/29 01:53:11;;;;;;;;;;;25.40;67.00;;;;;;5085295;28;19920;-35
2023/07/29 01:55:37;;;;;;;;;;;25.40;67.10;;;;;;5085113;28;19912;-35
2023/07/29 01:58:03;;;;;;;;;;;25.50;67.30;;;;;;5085371;28;19943;-35
2023/07/29 02:00:29;;;;;;;;;;;25.50;67.30;;;;;;5085136;28;20578;-35
2023/07/29 02:02:55;;;;;;;;;;;25.50;67.30;;;;;;5085036;28;19912;-36
2023/07/29 02:05:21;;;;;;;;;;;25.50;67.30;;;;;;5085240;28;19919;-36
2023/07/29 02:07:47;;;;;;;;;;;25.50;67.30;;;;;;5083856;28;19954;-36
2023/07/29 02:10:13;;;;;;;;;;;25.50;67.30;;;;;;5085378;28;19920;-36
2023/07/29 02:12:39;;;;;;;;;;;25.50;67.30;;;;;;5084719;28;19971;-36
2023/07/29 02:15:05;;;;;;;;;;;25.50;67.40;;;;;;5081676;28;19912;-36
2023/07/29 02:17:31;;;;;;;;;;;25.50;67.40;;;;;;5078102;28;19932;-35
2023/07/29 02:19:57;;;;;;;;;;;25.50;67.50;;;;;;5085351;28;19970;-36
2023/07/29 02:22:23;;;;;;;;;;;25.50;67.60;;;;;;5078950;28;19920;-36
2023/07/29 02:24:49;;;;;;;;;;;25.50;67.70;;;;;;5084842;28;20051;-36
2023/07/29 02:27:15;;;;;;;;;;;25.50;67.80;;;;;;5084389;28;19913;-36
2023/07/29 02:29:41;;;;;;;;;;;25.50;67.90;;;;;;5083666;28;19912;-35
2023/07/29 02:32:07;;;;;;;;;;;25.50;67.90;;;;;;5084776;28;19940;-36
2023/07/29 02:34:33;;;;;;;;;;;25.50;67.90;;;;;;5083391;28;19935;-35
2023/07/29 02:36:59;;;;;;;;;;;25.50;68.00;;;;;;5081786;28;19913;-35
2023/07/29 02:39:25;;;;;;;;;;;25.50;68.00;;;;;;5084663;28;19912;-36
2023/07/29 02:41:51;;;;;;;;;;;25.50;68.00;;;;;;5078814;28;19929;-36
2023/07/29 02:44:19;;;;;;;;;;;25.50;68.00;;;;;;5084532;28;20337;-36
2023/07/29 02:46:45;;;;;;;;;;;25.50;68.00;;;;;;5083445;28;19947;-36
2023/07/29 02:49:11;;;;;;;;;;;25.50;68.10;;;;;;5079348;28;19912;-35
2023/07/29 02:51:37;;;;;;;;;;;25.50;68.10;;;;;;5084245;28;19982;-35
2023/07/29 02:54:02;;;;;;;;;;;25.50;68.20;;;;;;5083155;28;19927;-36
2023/07/29 02:56:30;;;;;;;;;;;25.50;68.10;;;;;;5083743;28;19912;-36
2023/07/29 02:58:56;;;;;;;;;;;25.50;68.20;;;;;;5084259;28;19973;-35
2023/07/29 03:01:22;;;;;;;;;;;25.60;68.20;;;;;;5084353;28;20010;-35
2023/07/29 03:03:48;;;;;;;;;;;25.50;68.20;;;;;;5083838;28;19919;-36
2023/07/29 03:06:14;;;;;;;;;;;25.60;68.40;;;;;;5083959;28;19912;-36
2023/07/29 03:08:40;;;;;;;;;;;25.50;68.20;;;;;;5083629;28;19948;-36
2023/07/29 03:11:07;;;;;;;;;;;25.50;68.20;;;;;;5084094;28;19919;-36
2023/07/29 03:13:33;;;;;;;;;;;25.50;68.30;;;;;;5083760;28;20060;-36
2023/07/29 03:16:08;;;;;;;;;;;25.50;68.30;;;;;;5083210;28;20512;-40
2023/07/29 03:18:34;;;;;;;;;;;25.50;69.10;;;;;;5083699;28;19912;-36
2023/07/29 03:21:00;;;;;;;;;;;25.50;68.40;;;;;;5083980;28;19979;-36
2023/07/29 03:23:27;;;;;;;;;;;25.50;68.40;;;;;;5083868;28;19927;-35
2023/07/29 03:25:57;;;;;;;;;;;25.50;68.30;;;;;;5083653;28;19939;-36
2023/07/29 03:28:24;;;;;;;;;;;25.50;68.50;;;;;;5082201;28;19916;-35
2023/07/29 03:30:50;;;;;;;;;;;25.50;68.50;;;;;;5083397;28;19923;-35
2023/07/29 03:33:16;;;;;;;;;;;25.50;68.50;;;;;;5083595;28;19918;-35
2023/07/29 03:35:44;;;;;;;;;;;25.50;68.60;;;;;;5082278;28;19908;-36
2023/07/29 03:38:13;;;;;;;;;;;25.50;68.60;;;;;;5083453;28;19969;-35
2023/07/29 03:40:39;;;;;;;;;;;25.50;68.60;;;;;;5083206;28;19908;-36
2023/07/29 03:43:05;;;;;;;;;;;25.50;68.70;;;;;;5076885;28;19908;-36
2023/07/29 03:45:31;;;;;;;;;;;25.50;68.60;;;;;;5083167;28;20026;-36
2023/07/29 03:47:57;;;;;;;;;;;25.50;68.80;;;;;;5078631;28;19920;-36
2023/07/29 03:50:23;;;;;;;;;;;25.50;68.80;;;;;;5079796;28;19916;-35
2023/07/29 03:52:49;;;;;;;;;;;25.50;68.80;;;;;;5081663;28;19991;-36
2023/07/29 03:55:15;;;;;;;;;;;25.50;68.90;;;;;;5083222;28;19958;-35
2023/07/29 03:57:41;;;;;;;;;;;25.50;68.90;;;;;;5080591;28;20347;-36
2023/07/29 04:00:07;;;;;;;;;;;25.50;68.90;;;;;;5083388;28;19908;-35
2023/07/29 04:02:37;;;;;;;;;;;25.50;69.00;;;;;;5081638;28;19939;-37
2023/07/29 04:05:03;;;;;;;;;;;25.50;69.00;;;;;;5083111;28;19912;-36
2023/07/29 04:07:29;;;;;;;;;;;25.50;69.00;;;;;;5077246;28;19968;-35
2023/07/29 04:09:55;;;;;;;;;;;25.50;69.00;;;;;;5065062;28;19943;-35
2023/07/29 04:12:24;;;;;;;;;;;25.40;69.00;;;;;;5073709;28;19997;-35
2023/07/29 04:14:50;;;;;;;;;;;25.40;69.20;;;;;;5082646;28;19917;-35
2023/07/29 04:17:16;;;;;;;;;;;25.50;69.20;;;;;;5082626;28;19912;-35
2023/07/29 04:19:42;;;;;;;;;;;25.50;69.20;;;;;;5082751;28;19916;-35
2023/07/29 04:22:08;;;;;;;;;;;25.50;69.30;;;;;;5081120;28;19913;-35
2023/07/29 04:24:33;;;;;;;;;;;25.40;69.20;;;;;;5082123;28;19983;-35
2023/07/29 04:26:59;;;;;;;;;;;25.50;69.40;;;;;;5082511;28;20011;-35
2023/07/29 04:29:25;;;;;;;;;;;25.50;69.50;;;;;;5082449;28;19917;-35
2023/07/29 04:31:51;;;;;;;;;;;25.50;69.50;;;;;;5057248;28;19920;-35
2023/07/29 04:34:18;;;;;;;;;;;25.50;69.60;;;;;;5082386;28;19939;-35
2023/07/29 04:36:43;;;;;;;;;;;25.40;69.50;;;;;;5076687;28;20406;-35
2023/07/29 04:39:09;;;;;;;;;;;25.40;69.60;;;;;;5082611;28;19964;-35
2023/07/29 04:41:35;;;;;;;;;;;25.40;69.60;;;;;;5078820;28;20292;-34
2023/07/29 04:44:01;;;;;;;;;;;25.40;69.70;;;;;;5082659;28;19966;-35
2023/07/29 04:46:27;;;;;;;;;;;25.40;69.70;;;;;;5082216;28;19912;-35
2023/07/29 04:48:53;;;;;;;;;;;25.40;69.80;;;;;;5082137;28;19934;-35
2023/07/29 04:51:19;;;;;;;;;;;25.40;69.80;;;;;;5079286;28;19912;-35
2023/07/29 04:53:45;;;;;;;;;;;25.40;69.80;;;;;;5080973;28;19948;-35
2023/07/29 04:56:11;;;;;;;;;;;25.40;69.70;;;;;;5082158;28;19912;-35
2023/07/29 04:58:37;;;;;;;;;;;25.40;69.80;;;;;;5079166;28;19919;-36
2023/07/29 05:01:03;;;;;;;;;;;25.40;69.90;;;;;;5082245;28;19920;-35
2023/07/29 05:03:29;;;;;;;;;;;25.40;69.90;;;;;;5080910;28;19947;-35
2023/07/29 05:05:56;;;;;;;;;;;25.40;70.00;;;;;;5081802;28;19908;-35
2023/07/29 05:08:22;;;;;;;;;;;25.40;70.00;;;;;;5077514;28;19913;-36
2023/07/29 05:10:52;;;;;;;;;;;25.40;70.10;;;;;;5081848;28;19921;-36
2023/07/29 05:13:18;;;;;;;;;;;25.40;70.10;;;;;;5082121;28;20130;-36
2023/07/29 05:15:44;;;;;;;;;;;25.40;70.20;;;;;;5081770;28;19924;-35
2023/07/29 05:18:10;;;;;;;;;;;25.40;70.10;;;;;;5077759;28;20365;-36
2023/07/29 05:20:36;;;;;;;;;;;25.40;70.20;;;;;;5078912;28;19920;-36
2023/07/29 05:23:01;;;;;;;;;;;25.40;70.90;;;;;;5082039;28;19912;-36
2023/07/29 05:25:27;;;;;;;;;;;25.40;70.30;;;;;;5081717;28;20356;-36
2023/07/29 05:27:53;;;;;;;;;;;25.40;70.30;;;;;;5079492;28;19912;-36
2023/07/29 05:30:19;;;;;;;;;;;25.40;70.30;;;;;;5064110;28;19912;-36
2023/07/29 05:32:45;;;;;;;;;;;25.40;70.30;;;;;;5081542;28;20016;-36
2023/07/29 05:35:11;;;;;;;;;;;25.40;70.30;;;;;;5074580;28;19912;-36
2023/07/29 05:37:40;;;;;;;;;;;25.40;70.30;;;;;;5081524;28;19908;-35
2023/07/29 05:40:06;;;;;;;;;;;25.40;71.10;;;;;;5081740;28;20455;-36
2023/07/29 05:42:32;;;;;;;;;;;25.40;70.30;;;;;;5063333;28;19940;-36
2023/07/29 05:44:58;;;;;;;;;;;25.40;70.40;;;;;;5077006;28;19913;-34
2023/07/29 05:47:24;;;;;;;;;;;25.40;70.40;;;;;;5080202;28;19912;-35
2023/07/29 05:49:50;;;;;;;;;;;25.40;70.50;;;;;;5080516;28;19981;-35
2023/07/29 05:52:16;;;;;;;;;;;25.40;70.50;;;;;;5082094;28;19974;-36
2023/07/29 05:54:45;;;;;;;;;;;25.40;70.50;;;;;;5080726;28;20444;-35
2023/07/29 05:57:11;;;;;;;;;;;25.30;70.50;;;;;;5080212;28;19912;-35
2023/07/29 05:59:37;;;;;;;;;;;25.30;70.50;;;;;;5080938;28;20445;-35
2023/07/29 06:02:03;;;;;;;;;;;25.30;70.50;;;;;;5081604;28;20393;-35
2023/07/29 06:04:29;;;;;;;;;;;25.30;70.50;;;;;;5080091;28;19920;-36
2023/07/29 06:06:55;;;;;;;;;;;25.30;70.50;;;;;;5081666;28;19912;-38
2023/07/29 06:09:22;;;;;;;;;;;25.30;70.60;;;;;;5081867;28;19925;-36
2023/07/29 06:11:47;;;;;;;;;;;25.30;70.60;;;;;;5085090;28;19954;-35
2023/07/29 06:14:13;;;;;;;;;;;25.30;70.50;;;;;;5085495;28;19912;-36
2023/07/29 06:16:39;;;;;;;;;;;25.30;70.60;;;;;;5083085;28;19908;-36
2023/07/29 06:19:05;;;;;;;;;;;25.30;70.60;;;;;;5079131;28;19915;-35
2023/07/29 06:21:31;;;;;;;;;;;25.30;70.70;;;;;;5084841;28;19918;-35
2023/07/29 06:23:57;;;;;;;;;;;25.30;70.60;;;;;;5085207;28;20343;-35
2023/07/29 06:26:23;;;;;;;;;;;25.30;70.70;;;;;;5078038;28;19966;-35
2023/07/29 06:28:49;;;;;;;;;;;25.30;70.70;;;;;;5081230;28;19949;-36
2023/07/29 06:31:15;;;;;;;;;;;25.30;70.60;;;;;;5085095;28;19908;-36
2023/07/29 06:33:41;;;;;;;;;;;25.30;70.70;;;;;;5084598;28;19920;-35
2023/07/29 06:36:07;;;;;;;;;;;25.30;70.70;;;;;;5084651;28;19916;-36
2023/07/29 06:38:32;;;;;;;;;;;25.20;70.80;;;;;;5084302;28;19944;-35
2023/07/29 06:40:58;;;;;;;;;;;25.30;70.80;;;;;;5084927;28;19912;-36
2023/07/29 06:43:24;;;;;;;;;;;25.30;70.80;;;;;;5084873;28;19908;-35
2023/07/29 06:45:51;;;;;;;;;;;25.30;70.80;;;;;;5083637;28;20034;-36
2023/07/29 06:48:18;;;;;;;;;;;25.30;70.80;;;;;;5077838;28;19912;-36
2023/07/29 06:50:44;;;;;;;;;;;25.30;70.90;;;;;;5083276;28;19935;-35
2023/07/29 06:53:10;;;;;;;;;;;25.30;70.90;;;;;;5082958;28;20388;-36
2023/07/29 06:55:36;;;;;;;;;;;25.30;70.80;;;;;;5084488;28;19954;-36
2023/07/29 06:58:02;;;;;;;;;;;25.30;70.90;;;;;;5083813;28;19973;-35
2023/07/29 07:00:28;;;;;;;;;;;25.20;70.80;;;;;;5083955;28;19912;-35
2023/07/29 07:02:54;;;;;;;;;;;25.20;70.80;;;;;;5083621;28;19912;-36
2023/07/29 07:05:20;;;;;;;;;;;25.20;70.90;;;;;;5084360;28;20566;-35
2023/07/29 07:07:45;;;;;;;;;;;25.20;70.80;;;;;;5083700;28;19931;-35
2023/07/29 07:10:11;;;;;;;;;;;25.20;70.80;;;;;;5084153;28;19920;-35
2023/07/29 07:12:37;;;;;;;;;;;25.20;70.90;;;;;;5075940;28;19966;-35
2023/07/29 07:15:03;;;;;;;;;;;25.20;70.80;;;;;;5084363;28;19912;-35
2023/07/29 07:17:29;;;;;;;;;;;25.20;70.80;;;;;;5083477;28;19916;-35
2023/07/29 07:19:55;;;;;;;;;;;25.20;70.90;;;;;;5084120;28;19913;-35
2023/07/29 07:22:21;;;;;;;;;;;25.20;71.00;;;;;;5083151;28;19916;-35
2023/07/29 07:24:47;;;;;;;;;;;25.20;71.10;;;;;;5083105;28;19919;-35
2023/07/29 07:27:13;;;;;;;;;;;25.20;71.00;;;;;;5077820;28;19969;-35
2023/07/29 07:29:39;;;;;;;;;;;25.20;71.10;;;;;;5081807;28;20288;-36
2023/07/29 07:32:05;;;;;;;;;;;25.20;71.00;;;;;;5083764;28;19917;-35
2023/07/29 07:34:30;;;;;;;;;;;25.20;71.10;;;;;;5083539;28;19912;-35
2023/07/29 07:36:56;;;;;;;;;;;25.20;71.10;;;;;;5081936;28;19908;-35
2023/07/29 07:39:22;;;;;;;;;;;25.20;71.10;;;;;;5079382;28;19912;-36
2023/07/29 07:41:48;;;;;;;;;;;25.20;71.10;;;;;;5073905;28;20367;-35
2023/07/29 07:44:17;;;;;;;;;;;25.20;71.10;;;;;;5082577;28;20060;-35
2023/07/29 07:46:43;;;;;;;;;;;25.20;71.10;;;;;;5082829;28;19919;-35
2023/07/29 07:49:09;;;;;;;;;;;25.20;71.10;;;;;;5083428;28;19912;-35
2023/07/29 07:51:35;;;;;;;;;;;25.20;71.10;;;;;;5080490;28;20058;-35
2023/07/29 07:54:01;;;;;;;;;;;25.20;71.10;;;;;;5083426;28;19944;-35
2023/07/29 07:56:27;;;;;;;;;;;25.20;71.10;;;;;;5083425;28;19915;-35
2023/07/29 07:58:53;;;;;;;;;;;25.20;71.10;;;;;;5082996;28;19928;-35
2023/07/29 08:01:19;;;;;;;;;;;25.20;71.10;;;;;;5072891;28;19912;-35
2023/07/29 08:03:45;;;;;;;;;;;25.20;71.10;;;;;;5083118;28;19934;-35
2023/07/29 08:06:11;;;;;;;;;;;25.20;71.10;;;;;;5082860;28;19972;-35
2023/07/29 08:08:37;;;;;;;;;;;25.20;71.10;;;;;;5081597;28;19916;-36
2023/07/29 08:11:02;;;;;;;;;;;25.20;71.30;;;;;;5083008;28;20406;-36
2023/07/29 08:13:28;;;;;;;;;;;25.20;71.30;;;;;;5082793;28;19974;-35
2023/07/29 08:15:54;;;;;;;;;;;25.20;71.20;;;;;;5082862;28;19908;-35
2023/07/29 08:18:21;;;;;;;;;;;25.20;71.20;;;;;;5082488;28;19908;-35
2023/07/29 08:20:54;;;;;;;;;;;25.20;71.30;;;;;;5082585;28;19927;-35
2023/07/29 08:23:20;;;;;;;;;;;25.20;71.30;;;;;;5082972;28;19974;-35
2023/07/29 08:25:50;;;;;;;;;;;25.20;71.30;;;;;;5082191;28;20637;-36
2023/07/29 08:28:16;;;;;;;;;;;25.10;71.20;;;;;;5081484;28;19904;-35
2023/07/29 08:30:42;;;;;;;;;;;25.10;71.30;;;;;;5080194;28;19916;-36
2023/07/29 08:33:08;;;;;;;;;;;25.10;71.20;;;;;;5082724;28;20440;-36
2023/07/29 08:35:34;;;;;;;;;;;25.10;71.30;;;;;;5082441;28;19915;-36
2023/07/29 08:38:00;;;;;;;;;;;25.10;71.30;;;;;;5076803;28;19912;-35
2023/07/29 08:40:27;;;;;;;;;;;25.10;71.30;;;;;;5082294;28;19914;-35
2023/07/29 08:42:53;;;;;;;;;;;25.10;71.20;;;;;;5077189;28;19936;-35
2023/07/29 08:45:19;;;;;;;;;;;25.10;71.30;;;;;;5057195;28;19912;-36
2023/07/29 08:47:45;;;;;;;;;;;25.10;71.30;;;;;;5074465;28;20001;-35
2023/07/29 08:50:10;;;;;;;;;;;25.10;71.30;;;;;;5082375;28;19938;-35
2023/07/29 08:52:36;;;;;;;;;;;25.10;71.40;;;;;;5064088;28;19923;-35
2023/07/29 08:55:03;;;;;;;;;;;25.10;71.50;;;;;;5082649;28;19920;-35
2023/07/29 08:57:28;;;;;;;;;;;25.10;71.50;;;;;;5062875;28;19908;-35
2023/07/29 08:59:54;;;;;;;;;;;25.10;71.40;;;;;;5063797;28;19916;-35
2023/07/29 09:02:20;;;;;;;;;;;25.10;71.60;;;;;;5063969;28;19963;-35
2023/07/29 09:04:46;;;;;;;;;;;25.10;71.50;;;;;;5082173;28;19923;-35
2023/07/29 09:07:12;;;;;;;;;;;25.10;71.40;;;;;;5082224;28;19909;-36
2023/07/29 09:09:38;;;;;;;;;;;25.10;71.50;;;;;;5081892;28;19927;-35
2023/07/29 09:12:04;;;;;;;;;;;25.10;71.40;;;;;;5082452;28;20021;-35
2023/07/29 09:14:30;;;;;;;;;;;25.10;71.50;;;;;;5081823;28;19922;-35
2023/07/29 09:16:56;;;;;;;;;;;25.10;71.50;;;;;;5082323;28;19952;-35
2023/07/29 09:19:25;;;;;;;;;;;25.10;71.50;;;;;;5082259;28;19912;-35
2023/07/29 09:21:50;;;;;;;;;;;25.10;71.50;;;;;;5081437;28;19924;-36
2023/07/29 09:24:19;;;;;;;;;;;25.00;71.40;;;;;;5081782;28;19912;-35
2023/07/29 09:26:53;;;;;;;;;;;25.10;71.50;;;;;;5078841;28;20400;-35
2023/07/29 09:29:22;;;;;;;;;;;25.00;71.40;;;;;;5081868;28;19970;-35
2023/07/29 09:31:48;;;;;;;;;;;25.00;72.20;;;;;;5081740;28;19919;-35
2023/07/29 09:34:14;;;;;;;;;;;25.00;71.50;;;;;;5064189;28;19983;-35
2023/07/29 09:36:40;;;;;;;;;;;25.00;71.40;;;;;;5063748;28;19963;-35
2023/07/29 09:39:10;;;;;;;;;;;25.00;71.50;;;;;;5058424;28;19913;-36
2023/07/29 09:41:36;;;;;;;;;;;25.00;71.60;;;;;;5081703;28;19956;-35
2023/07/29 09:44:03;;;;;;;;;;;25.00;71.60;;;;;;5081109;28;20273;-35
2023/07/29 09:46:32;;;;;;;;;;;25.00;71.60;;;;;;5085348;28;19919;-36
2023/07/29 09:48:58;;;;;;;;;;;25.00;71.60;;;;;;5077718;28;19912;-37
2023/07/29 09:51:24;;;;;;;;;;;25.00;71.60;;;;;;5084356;28;19915;-35
2023/07/29 09:53:51;;;;;;;;;;;25.00;71.60;;;;;;5084656;28;19924;-35
2023/07/29 09:56:16;;;;;;;;;;;25.00;71.70;;;;;;5067434;28;19920;-35
2023/07/29 09:58:43;;;;;;;;;;;25.00;71.60;;;;;;5085492;28;19908;-36
2023/07/29 10:01:09;;;;;;;;;;;25.00;70.80;;;;;;5084379;28;20000;-36
2023/07/29 10:03:35;;;;;;;;;;;25.00;69.20;;;;;;5085015;28;19912;-35
2023/07/29 10:06:04;;;;;;;;;;;24.90;68.00;;;;;;5067586;28;19912;-35
2023/07/29 10:08:31;;;;;;;;;;;24.90;67.00;;;;;;5085172;28;19912;-35
2023/07/29 10:10:59;;;;;;;;;;;24.90;66.50;;;;;;5085302;28;19912;-35
2023/07/29 10:13:25;;;;;;;;;;;24.90;65.90;;;;;;5085090;28;19916;-35
2023/07/29 10:15:51;;;;;;;;;;;24.80;65.30;;;;;;5084001;28;19908;-35
2023/07/29 10:18:17;;;;;;;;;;;24.80;65.00;;;;;;5085354;28;19931;-35
2023/07/29 10:20:43;;;;;;;;;;;24.70;64.60;;;;;;5080682;28;20564;-35
2023/07/29 10:23:09;;;;;;;;;;;24.70;64.30;;;;;;5067334;28;19919;-35
2023/07/29 10:25:41;;;;;;;;;;;24.60;63.80;;;;;;5079030;28;19951;-35
2023/07/29 10:28:07;;;;;;;;;;;24.60;64.30;;;;;;5085192;28;19912;-36
2023/07/29 10:30:33;;;;;;;;;;;24.60;63.50;;;;;;5084664;28;19952;-34
2023/07/29 10:33:03;;;;;;;;;;;24.50;63.20;;;;;;5085108;28;19920;-35
2023/07/29 10:35:29;;;;;;;;;;;24.50;63.00;;;;;;5084843;28;19912;-35
2023/07/29 10:37:55;;;;;;;;;;;24.40;62.80;;;;;;5080202;28;19970;-36
2023/07/29 10:40:21;;;;;;;;;;;24.40;62.60;;;;;;5079462;28;19912;-34
2023/07/29 10:43:01;;;;;;;;;;;24.30;62.80;;;;;;5081814;28;19987;-33
2023/07/29 10:45:27;;;;;;;;;;;24.30;63.40;;;;;;5081079;28;19919;-34
2023/07/29 10:47:53;;;;;;;;;;;24.30;63.50;;;;;;5060430;28;19912;-34
2023/07/29 10:50:20;;;;;;;;;;;24.20;63.40;;;;;;5080511;28;19913;-35
2023/07/29 10:52:50;;;;;;;;;;;24.20;63.50;;;;;;5076978;28;19928;-34
2023/07/29 10:55:26;;;;;;;;;;;24.10;63.60;;;;;;5076912;28;20292;-34
2023/07/29 10:57:52;;;;;;;;;;;24.10;64.10;;;;;;5080386;28;19923;-34
2023/07/29 11:00:21;;;;;;;;;;;24.10;65.40;;;;;;5082440;28;19912;-34
2023/07/29 11:03:01;;;;;;;;;;;24.10;66.10;;;;;;5078564;28;19975;-35
2023/07/29 11:05:27;;;;;;;;;;;24.10;65.90;;;;;;5084168;28;19944;-34
2023/07/29 11:07:52;;;;;;;;;;;24.10;65.50;;;;;;5078490;28;19919;-34
2023/07/29 11:10:18;;;;;;;;;;;24.10;64.80;;;;;;5081512;28;19920;-34
2023/07/29 11:12:51;;;;;;;;;;;24.00;63.90;;;;;;5082597;28;20340;-33
2023/07/29 11:15:18;;;;;;;;;;;24.00;63.30;;;;;;5084433;28;20018;-34
2023/07/29 11:17:48;;;;;;;;;;;24.00;64.00;;;;;;5080535;28;19995;-34
2023/07/29 11:20:14;;;;;;;;;;;24.00;65.90;;;;;;5083655;28;19908;-34
2023/07/29 11:22:40;;;;;;;;;;;24.00;67.00;;;;;;5082850;28;19940;-34
2023/07/29 11:25:07;;;;;;;;;;;24.00;66.70;;;;;;5083059;28;20292;-36
2023/07/29 11:27:33;;;;;;;;;;;24.00;65.90;;;;;;5080922;28;19918;-37
2023/07/29 11:29:59;;;;;;;;;;;24.00;66.30;;;;;;5084325;28;19964;-37
2023/07/29 11:32:25;;;;;;;;;;;24.00;66.20;;;;;;5083165;28;20007;-38
2023/07/29 11:34:51;;;;;;;;;;;23.90;64.80;;;;;;5064279;28;19967;-37
2023/07/29 11:37:17;;;;;;;;;;;23.90;65.20;;;;;;5078248;28;19920;-37
2023/07/29 11:39:44;;;;;;;;;;;23.90;65.40;;;;;;5081348;28;19916;-37
2023/07/29 11:42:12;;;;;;;;;;;23.90;64.80;;;;;;5083432;28;19912;-36
2023/07/29 11:44:38;;;;;;;;;;;23.90;64.60;;;;;;5083123;28;19986;-37
2023/07/29 11:47:07;;;;;;;;;;;23.80;63.80;;;;;;5082799;28;19912;-36
2023/07/29 11:49:33;;;;;;;;;;;23.80;63.20;;;;;;5082248;28;19935;-36
2023/07/29 11:51:59;;;;;;;;;;;23.80;63.20;;;;;;5075404;28;19921;-36
2023/07/29 11:54:25;;;;;;;;;;;23.80;63.00;;;;;;5082723;28;19919;-37
2023/07/29 11:56:51;;;;;;;;;;;23.80;74.60;;;;;;5081870;28;19954;-36
2023/07/29 11:59:17;;;;;;;;;;;23.80;71.10;;;;;;5082700;28;19908;-37
2023/07/29 12:01:43;;;;;;;;;;;23.70;68.50;;;;;;5053932;28;19913;-36
2023/07/29 12:04:09;;;;;;;;;;;23.70;66.60;;;;;;5083022;28;19919;-37
2023/07/29 12:06:35;;;;;;;;;;;23.70;65.90;;;;;;5080112;28;19920;-37
2023/07/29 12:09:00;;;;;;;;;;;23.60;65.40;;;;;;5076428;28;20007;-37
2023/07/29 12:11:27;;;;;;;;;;;23.60;64.80;;;;;;5080638;28;19908;-37
2023/07/29 12:13:56;;;;;;;;;;;23.60;66.00;;;;;;5081601;28;19921;-36
2023/07/29 12:16:22;;;;;;;;;;;23.60;66.10;;;;;;5082644;28;19912;-35
2023/07/29 12:18:48;;;;;;;;;;;23.50;66.40;;;;;;5080790;28;19916;-36
2023/07/29 12:21:14;;;;;;;;;;;23.50;64.90;;;;;;5064041;28;19912;-35
2023/07/29 12:23:40;;;;;;;;;;;23.50;64.40;;;;;;5081573;28;19916;-38
2023/07/29 12:26:06;;;;;;;;;;;23.50;64.30;;;;;;5082156;28;19922;-34
2023/07/29 12:28:32;;;;;;;;;;;23.50;64.10;;;;;;5081883;28;19916;-35
2023/07/29 12:30:58;;;;;;;;;;;23.50;62.80;;;;;;5081802;28;20657;-37
2023/07/29 12:33:30;;;;;;;;;;;23.50;63.00;;;;;;5080027;28;19966;-35
2023/07/29 12:35:56;;;;;;;;;;;23.50;63.90;;;;;;5078806;28;19950;-35
2023/07/29 12:38:22;;;;;;;;;;;23.50;64.40;;;;;;5082105;28;19912;-36
2023/07/29 12:40:48;;;;;;;;;;;23.50;64.60;;;;;;5079952;28;19916;-40
2023/07/29 12:43:14;;;;;;;;;;;23.50;65.20;;;;;;5081752;28;20359;-36
2023/07/29 12:45:41;;;;;;;;;;;23.50;66.30;;;;;;5080761;28;19916;-35
2023/07/29 12:48:07;;;;;;;;;;;23.50;65.90;;;;;;5082316;28;19978;-35
2023/07/29 12:50:33;;;;;;;;;;;23.40;65.70;;;;;;5081001;28;20015;-37
2023/07/29 12:52:59;;;;;;;;;;;23.40;66.00;;;;;;5082196;28;19962;-37
2023/07/29 12:55:25;;;;;;;;;;;23.40;66.30;;;;;;5082376;28;20014;-37
2023/07/29 12:57:51;;;;;;;;;;;23.40;66.00;;;;;;5081742;28;19923;-35
2023/07/29 13:00:18;;;;;;;;;;;23.40;66.30;;;;;;5082246;28;19918;-35
2023/07/29 13:02:43;;;;;;;;;;;23.50;66.80;;;;;;5079633;28;19939;-36
2023/07/29 13:05:11;;;;;;;;;;;23.40;66.50;;;;;;5082056;28;19908;-35
2023/07/29 13:07:37;;;;;;;;;;;23.40;66.50;;;;;;5081886;28;19909;-36
2023/07/29 13:10:03;;;;;;;;;;;23.40;66.50;;;;;;5082195;28;19927;-35
2023/07/29 13:12:29;;;;;;;;;;;23.40;66.50;;;;;;5081775;28;19943;-36
2023/07/29 13:14:55;;;;;;;;;;;23.40;66.50;;;;;;5080763;28;19916;-36
2023/07/29 13:17:21;;;;;;;;;;;23.40;65.60;;;;;;5081573;28;19916;-36
2023/07/29 13:19:47;;;;;;;;;;;23.40;65.80;;;;;;5082908;28;19940;-38
2023/07/29 13:22:13;;;;;;;;;;;23.40;66.30;;;;;;5085879;28;19919;-35
2023/07/29 13:24:39;;;;;;;;;;;23.40;66.80;;;;;;5085894;28;19989;-36
2023/07/29 13:27:05;;;;;;;;;;;23.40;66.80;;;;;;5085759;28;19908;-35
2023/07/29 13:29:31;;;;;;;;;;;23.40;66.90;;;;;;5083444;28;20035;-36
2023/07/29 13:31:57;;;;;;;;;;;23.30;66.80;;;;;;5086042;28;20415;-36
2023/07/29 13:34:22;;;;;;;;;;;23.30;66.80;;;;;;5085987;28;20031;-36
2023/07/29 13:36:48;;;;;;;;;;;23.40;67.00;;;;;;5084996;28;19913;-36
2023/07/29 13:39:15;;;;;;;;;;;23.40;67.90;;;;;;5086012;28;19919;-35
2023/07/29 13:41:41;;;;;;;;;;;23.40;69.20;;;;;;5083010;28;20487;-36
2023/07/29 13:44:06;;;;;;;;;;;23.40;70.70;;;;;;5085452;28;19936;-36
2023/07/29 13:46:32;;;;;;;;;;;23.40;71.30;;;;;;5084823;28;20028;-36
2023/07/29 13:48:58;;;;;;;;;;;23.40;73.00;;;;;;5085634;28;19958;-36
2023/07/29 13:51:24;;;;;;;;;;;23.40;73.80;;;;;;5085814;28;19919;-36
2023/07/29 13:53:50;;;;;;;;;;;23.50;74.60;;;;;;5084969;28;19920;-35
2023/07/29 13:56:16;;;;;;;;;;;23.50;75.20;;;;;;5085503;28;19926;-36
2023/07/29 13:58:42;;;;;;;;;;;23.50;75.70;;;;;;5083739;28;19919;-36
2023/07/29 14:01:07;;;;;;;;;;;23.50;75.70;;;;;;5085206;28;19919;-36
2023/07/29 14:03:33;;;;;;;;;;;23.50;72.40;;;;;;5084448;28;19946;-36
2023/07/29 14:05:59;;;;;;;;;;;23.50;70.40;;;;;;5084805;28;19962;-36
2023/07/29 14:08:25;;;;;;;;;;;23.50;69.70;;;;;;5080803;28;19924;-36
2023/07/29 14:10:51;;;;;;;;;;;23.50;71.50;;;;;;5085375;28;19920;-36
2023/07/29 14:13:17;;;;;;;;;;;23.50;72.90;;;;;;5085254;28;19978;-36